Time;durP1;ratioP1;P1;durP2;ratioP2;P2;SDS_P1;SDS_P2;PMS_P1;PMS_P2;Temp;Humidity;BMP_temperature;BMP_pressure;BME280_temperature;BME280_humidity;BME280_pressure;Samples;Min_cycle;Max_cycle;Signal;HPM_P1;HPM_P2
2023/04/06 00:00:33;;;;;;;23.55;13.60;;;8.80;99.90;;;;;;4929522;29;20114;-93
2023/04/06 00:03:00;;;;;;;19.23;12.40;;;8.80;99.90;;;;;;4929839;29;20031;-92
2023/04/06 00:05:30;;;;;;;18.42;11.77;;;8.80;99.90;;;;;;4927120;29;20536;-94
2023/04/06 00:14:02;;;;;;;18.25;10.23;;;8.60;99.90;;;;;;5689980;23;20121;-92
2023/04/06 00:16:29;;;;;;;18.90;10.00;;;8.50;99.90;;;;;;4925808;29;20114;-92
2023/04/06 00:19:07;;;;;;;14.95;10.38;;;8.50;99.90;;;;;;4926390;29;20130;-94
2023/04/06 00:21:36;;;;;;;17.80;9.82;;;8.50;99.90;;;;;;4941589;29;20392;-92
2023/04/06 00:24:10;;;;;;;15.02;9.77;;;8.40;99.90;;;;;;4927925;29;20057;-92
2023/04/06 00:26:43;;;;;;;19.48;9.73;;;8.40;99.90;;;;;;4941654;29;20380;-92
2023/04/06 00:29:13;;;;;;;15.98;10.52;;;8.40;99.90;;;;;;4925094;29;20058;-92
2023/04/06 00:35:04;;;;;;;14.85;9.20;;;8.40;99.90;;;;;;4851952;29;20041;-93
2023/04/06 00:37:38;;;;;;;13.25;8.25;;;8.30;99.90;;;;;;4850776;29;20033;-92
2023/04/06 00:40:06;;;;;;;9.85;6.45;;;8.30;99.90;;;;;;4849736;29;20029;-93
2023/04/06 00:43:02;;;;;;;14.90;7.20;;;8.20;99.90;;;;;;4874862;29;20503;-93
2023/04/06 00:45:29;;;;;;;7.25;6.10;;;8.10;99.90;;;;;;4849669;29;20063;-92
2023/04/06 00:47:59;;;;;;;12.50;7.00;;;8.10;99.90;;;;;;4864909;29;20029;-92
2023/04/06 00:50:28;;;;;;;9.55;6.32;;;8.10;99.90;;;;;;4849892;29;20025;-91
2023/04/06 00:52:55;;;;;;;8.45;6.13;;;8.10;99.90;;;;;;4849582;29;20036;-91
2023/04/06 00:55:27;;;;;;;7.43;6.25;;;8.10;99.90;;;;;;4843488;29;20049;-92
2023/04/06 00:57:57;;;;;;;9.40;6.47;;;8.10;99.90;;;;;;4846990;29;20084;-92
2023/04/06 01:00:24;;;;;;;10.77;5.90;;;8.00;99.90;;;;;;4846663;29;20116;-91
2023/04/06 01:02:56;;;;;;;11.38;6.72;;;8.00;99.90;;;;;;4846022;29;20030;-93
2023/04/06 01:05:33;;;;;;;9.52;6.53;;;8.00;99.90;;;;;;4847320;29;20065;-92
2023/04/06 01:08:02;;;;;;;9.40;6.50;;;7.90;99.90;;;;;;4846249;29;20481;-92
2023/04/06 01:10:29;;;;;;;10.68;6.05;;;7.90;99.90;;;;;;4857877;29;20035;-92
2023/04/06 01:13:03;;;;;;;10.07;6.10;;;7.90;99.90;;;;;;4906965;29;20036;-93
2023/04/06 01:16:06;;;;;;;9.05;6.25;;;7.80;99.90;;;;;;4880209;29;20056;-91
2023/04/06 01:19:01;;;;;;;9.43;5.85;;;7.80;99.90;;;;;;4880417;29;20049;-92
2023/04/06 01:21:31;;;;;;;8.10;5.60;;;7.80;99.90;;;;;;4879816;29;20630;-93
2023/04/06 01:24:10;;;;;;;6.32;5.25;;;7.80;99.90;;;;;;4880042;29;20048;-91
2023/04/06 01:27:00;;;;;;;5.90;5.03;;;7.70;99.90;;;;;;4867241;29;20039;-91
2023/04/06 01:29:37;;;;;;;12.05;5.90;;;7.70;99.90;;;;;;4879877;29;20033;-90
2023/04/06 01:32:08;;;;;;;7.05;5.53;;;7.70;99.90;;;;;;4880120;29;20041;-91
2023/04/06 01:34:41;;;;;;;8.48;5.68;;;7.70;99.90;;;;;;4880488;29;20037;-92
2023/04/06 01:37:08;;;;;;;7.43;5.97;;;7.70;99.90;;;;;;4880368;29;20052;-93
2023/04/06 01:39:42;;;;;;;10.90;6.47;;;7.60;99.90;;;;;;4879763;29;20549;-94
2023/04/06 01:42:11;;;;;;;8.43;6.00;;;7.60;99.90;;;;;;4879269;29;20064;-91
2023/04/06 01:44:39;;;;;;;6.47;5.38;;;7.60;99.90;;;;;;4880349;29;20033;-91
2023/04/06 01:47:11;;;;;;;6.57;5.93;;;7.60;99.90;;;;;;4879591;29;20052;-92
2023/04/06 01:49:38;;;;;;;7.10;5.57;;;7.50;99.90;;;;;;4895287;29;20036;-91
2023/04/06 01:52:05;;;;;;;7.63;5.68;;;7.50;99.90;;;;;;4905123;29;20396;-92
2023/04/06 01:54:31;;;;;;;7.20;5.72;;;7.40;99.90;;;;;;4904973;29;20032;-92
2023/04/06 01:57:11;;;;;;;5.95;5.35;;;7.40;99.90;;;;;;4922384;29;20193;-91
2023/04/06 01:59:43;;;;;;;9.10;5.97;;;7.40;99.90;;;;;;4920756;29;20035;-92
2023/04/06 02:02:21;;;;;;;7.90;6.25;;;7.40;99.90;;;;;;4922220;29;20118;-91
2023/04/06 02:05:00;;;;;;;9.38;6.40;;;7.40;99.90;;;;;;4920797;29;20481;-92
2023/04/06 02:07:28;;;;;;;8.70;6.70;;;7.40;99.90;;;;;;4920732;29;20445;-92
2023/04/06 02:09:56;;;;;;;8.90;6.47;;;7.40;99.90;;;;;;4920845;29;20027;-92
2023/04/06 02:12:31;;;;;;;11.43;6.68;;;7.40;99.90;;;;;;4921656;29;20201;-93
2023/04/06 02:14:58;;;;;;;11.07;6.40;;;7.40;99.90;;;;;;4920264;29;20083;-92
2023/04/06 02:17:25;;;;;;;8.75;6.55;;;7.40;99.90;;;;;;4920201;29;20517;-94
2023/04/06 02:19:51;;;;;;;8.35;6.60;;;7.40;99.90;;;;;;4920502;29;20055;-91
2023/04/06 02:22:18;;;;;;;8.90;6.60;;;7.40;99.90;;;;;;4920394;29;20032;-91
2023/04/06 02:24:45;;;;;;;11.60;6.47;;;7.40;99.90;;;;;;4920650;29;20051;-92
2023/04/06 02:27:17;;;;;;;11.85;5.97;;;7.30;99.90;;;;;;4920520;29;20095;-93
2023/04/06 02:29:47;;;;;;;8.70;5.57;;;7.30;99.90;;;;;;4921215;29;20062;-92
2023/04/06 02:32:18;;;;;;;7.97;5.30;;;7.30;99.90;;;;;;4920403;29;20035;-92
2023/04/06 02:34:46;;;;;;;11.38;7.38;;;7.30;99.90;;;;;;4920957;29;20151;-91
2023/04/06 02:37:23;;;;;;;10.40;5.82;;;7.30;99.90;;;;;;4909262;29;20071;-91
2023/04/06 02:40:06;;;;;;;11.25;6.13;;;7.30;99.90;;;;;;4907459;29;20067;-93
2023/04/06 02:42:45;;;;;;;10.77;5.60;;;7.30;99.90;;;;;;4904430;29;20126;-93
2023/04/06 02:45:23;;;;;;;10.55;5.90;;;7.30;99.90;;;;;;4908883;29;20042;-92
2023/04/06 02:48:05;;;;;;;10.00;5.13;;;7.30;99.90;;;;;;4946041;28;20061;-91
2023/04/06 02:50:38;;;;;;;12.63;6.38;;;7.30;99.90;;;;;;4934397;29;20035;-93
2023/04/06 02:53:16;;;;;;;9.93;6.22;;;7.20;99.90;;;;;;4926687;29;20043;-91
2023/04/06 02:55:55;;;;;;;10.48;6.75;;;7.30;99.90;;;;;;4927761;29;20365;-92
2023/04/06 02:58:41;;;;;;;10.20;6.85;;;7.30;99.90;;;;;;4928090;29;20043;-93
2023/04/06 03:01:14;;;;;;;11.85;6.95;;;7.30;99.90;;;;;;4928696;29;20031;-91
2023/04/06 03:03:51;;;;;;;9.60;6.60;;;7.40;99.90;;;;;;4928052;29;20042;-93
2023/04/06 03:06:39;;;;;;;12.10;6.50;;;7.40;99.90;;;;;;4945714;29;20027;-91
2023/04/06 03:09:38;;;;;;;11.90;6.90;;;7.40;99.90;;;;;;4945686;29;20032;-92
2023/04/06 03:12:07;;;;;;;10.18;6.53;;;7.30;99.90;;;;;;4927319;29;20037;-92
2023/04/06 03:14:56;;;;;;;11.82;6.65;;;7.30;99.90;;;;;;4927849;29;20051;-92
2023/04/06 03:17:32;;;;;;;11.00;6.35;;;7.30;99.90;;;;;;4909536;29;20031;-93
2023/04/06 03:20:36;;;;;;;12.13;6.50;;;7.30;99.90;;;;;;4911764;29;20118;-93
2023/04/06 03:23:02;;;;;;;10.27;6.40;;;7.30;99.90;;;;;;4893872;29;20079;-92
2023/04/06 03:25:34;;;;;;;8.68;6.25;;;7.30;99.90;;;;;;4908414;29;20035;-91
2023/04/06 03:28:04;;;;;;;10.70;6.63;;;7.30;99.90;;;;;;4908267;29;20027;-92
2023/04/06 03:30:35;;;;;;;10.75;6.35;;;7.30;99.90;;;;;;4908315;29;20553;-93
2023/04/06 03:33:01;;;;;;;9.13;7.03;;;7.30;99.90;;;;;;4923443;29;20042;-92
2023/04/06 03:35:32;;;;;;;9.90;6.63;;;7.40;99.90;;;;;;4908084;29;20047;-91
2023/04/06 03:37:58;;;;;;;12.75;7.35;;;7.30;99.90;;;;;;4907255;29;20047;-92
2023/04/06 03:40:32;;;;;;;14.07;7.53;;;7.40;99.90;;;;;;4907460;29;20122;-92
2023/04/06 03:42:59;;;;;;;14.35;8.20;;;7.40;99.90;;;;;;4907209;29;20532;-92
2023/04/06 03:45:26;;;;;;;11.75;7.97;;;7.40;99.90;;;;;;4907217;29;20038;-91
2023/04/06 03:47:52;;;;;;;15.07;8.13;;;7.40;99.90;;;;;;4907392;29;20036;-92
2023/04/06 03:50:19;;;;;;;12.65;8.27;;;7.40;99.90;;;;;;4907179;29;20063;-91
2023/04/06 03:52:46;;;;;;;12.38;8.32;;;7.40;99.90;;;;;;4922863;29;20036;-92
2023/04/06 03:55:12;;;;;;;15.55;9.48;;;7.50;99.90;;;;;;4907190;29;20027;-92
2023/04/06 03:57:39;;;;;;;14.77;9.13;;;7.50;99.90;;;;;;4922720;29;20040;-91
2023/04/06 04:00:06;;;;;;;14.75;8.73;;;7.50;99.90;;;;;;4906987;29;20028;-93
2023/04/06 04:02:39;;;;;;;15.45;9.48;;;7.50;99.90;;;;;;4923370;29;20036;-91
2023/04/06 04:05:06;;;;;;;15.88;10.48;;;7.50;99.90;;;;;;4905785;29;20035;-90
2023/04/06 04:07:33;;;;;;;16.33;9.77;;;7.60;99.90;;;;;;4906785;29;20028;-92
2023/04/06 04:10:00;;;;;;;17.65;10.13;;;7.60;99.90;;;;;;4906818;29;20441;-90
2023/04/06 04:12:26;;;;;;;14.70;9.52;;;7.60;99.90;;;;;;4907017;29;20032;-93
2023/04/06 04:14:53;;;;;;;13.82;9.35;;;7.60;99.90;;;;;;4906875;29;20050;-90
2023/04/06 04:17:20;;;;;;;15.18;10.25;;;7.60;99.90;;;;;;4907032;29;20449;-92
2023/04/06 04:19:46;;;;;;;16.10;10.15;;;7.60;99.90;;;;;;4906925;29;20054;-90
2023/04/06 04:22:14;;;;;;;17.70;10.82;;;7.70;99.90;;;;;;4906929;29;20032;-92
2023/04/06 04:24:42;;;;;;;15.43;9.95;;;7.70;99.90;;;;;;4922161;29;20374;-92
2023/04/06 04:27:09;;;;;;;18.33;10.80;;;7.70;99.90;;;;;;4906748;29;20023;-92
2023/04/06 04:29:37;;;;;;;20.63;12.15;;;7.70;99.90;;;;;;4906759;29;20120;-91
2023/04/06 04:32:07;;;;;;;20.13;11.70;;;7.80;99.90;;;;;;4907057;29;20023;-92
2023/04/06 04:34:34;;;;;;;21.42;10.70;;;7.70;99.90;;;;;;4906460;29;20040;-93
2023/04/06 04:37:03;;;;;;;22.33;13.02;;;7.70;99.90;;;;;;4906473;29;20024;-92
2023/04/06 04:39:43;;;;;;;23.35;13.13;;;7.80;99.90;;;;;;4922027;29;20039;-91
2023/04/06 04:42:11;;;;;;;23.30;13.48;;;7.80;99.90;;;;;;4906392;29;20024;-90
2023/04/06 04:44:43;;;;;;;20.58;11.73;;;7.80;99.90;;;;;;4907157;29;20034;-93
2023/04/06 04:47:10;;;;;;;23.38;12.95;;;7.90;99.90;;;;;;4906643;29;20031;-92
2023/04/06 04:49:44;;;;;;;22.52;13.18;;;7.90;99.90;;;;;;4907447;29;20028;-91
2023/04/06 04:52:15;;;;;;;22.42;12.20;;;7.90;99.90;;;;;;4922145;29;20063;-93
2023/04/06 04:54:59;;;;;;;19.20;10.88;;;7.90;99.90;;;;;;4924542;29;20046;-92
2023/04/06 04:57:29;;;;;;;19.65;11.65;;;7.90;99.90;;;;;;4937626;29;20490;-93
2023/04/06 04:59:57;;;;;;;20.40;11.93;;;7.90;99.90;;;;;;4920997;29;20063;-92
2023/04/06 05:02:23;;;;;;;21.92;13.35;;;7.90;99.90;;;;;;4921639;29;20031;-92
2023/04/06 05:05:10;;;;;;;22.23;12.20;;;7.90;99.90;;;;;;4926055;29;20557;-92
2023/04/06 05:07:38;;;;;;;26.52;13.73;;;8.00;99.90;;;;;;4921671;29;20478;-90
2023/04/06 05:10:08;;;;;;;20.85;12.60;;;8.00;99.90;;;;;;4922555;29;20028;-92
2023/04/06 05:12:40;;;;;;;21.73;12.43;;;8.00;99.90;;;;;;4921612;29;20032;-93
2023/04/06 05:15:11;;;;;;;20.33;12.43;;;8.00;99.90;;;;;;4921206;29;20043;-91
2023/04/06 05:17:38;;;;;;;18.58;11.70;;;8.00;99.90;;;;;;4921906;29;20382;-94
2023/04/06 05:20:07;;;;;;;23.38;12.63;;;8.00;99.90;;;;;;4921484;29;20032;-91
2023/04/06 05:22:42;;;;;;;19.38;11.68;;;8.00;99.90;;;;;;4921449;29;20111;-93
2023/04/06 05:25:10;;;;;;;19.08;11.18;;;8.00;99.90;;;;;;4921309;29;20036;-93
2023/04/06 05:27:39;;;;;;;19.10;11.45;;;8.00;99.90;;;;;;4920937;29;20054;-90
2023/04/06 05:30:14;;;;;;;19.38;11.70;;;8.00;99.90;;;;;;4921333;29;20027;-91
2023/04/06 05:32:45;;;;;;;24.52;12.45;;;8.00;99.90;;;;;;4921359;29;20060;-93
2023/04/06 05:35:12;;;;;;;20.70;12.57;;;8.10;99.90;;;;;;4919581;29;20035;-92
2023/04/06 05:37:40;;;;;;;23.98;13.25;;;8.10;99.90;;;;;;4936862;29;20028;-92
2023/04/06 05:40:09;;;;;;;26.20;13.07;;;8.20;99.90;;;;;;4937342;29;20036;-91
2023/04/06 05:42:46;;;;;;;21.83;13.05;;;8.30;99.90;;;;;;4936483;29;20028;-92
2023/04/06 05:45:16;;;;;;;25.65;14.50;;;8.40;99.90;;;;;;4936951;29;20059;-92
2023/04/06 05:47:46;;;;;;;22.05;12.38;;;8.50;99.90;;;;;;4936039;29;20028;-92
2023/04/06 05:50:22;;;;;;;23.75;13.90;;;8.60;99.90;;;;;;4935354;29;20098;-92
2023/04/06 05:52:49;;;;;;;25.50;13.30;;;8.60;99.90;;;;;;4936420;29;20028;-90
2023/04/06 05:55:19;;;;;;;23.05;13.68;;;8.70;99.90;;;;;;4936167;29;20028;-91
2023/04/06 05:57:51;;;;;;;26.55;15.30;;;8.70;99.90;;;;;;4935708;29;20046;-91
2023/04/06 06:00:20;;;;;;;23.92;13.65;;;8.70;99.90;;;;;;4920805;29;20493;-91
2023/04/06 06:02:57;;;;;;;21.60;13.82;;;8.60;99.90;;;;;;4936510;29;20560;-92
2023/04/06 06:05:29;;;;;;;24.35;13.85;;;8.60;99.90;;;;;;4935838;29;20031;-91
2023/04/06 06:08:01;;;;;;;21.02;12.95;;;8.60;99.90;;;;;;4936161;29;20038;-92
2023/04/06 06:10:29;;;;;;;25.20;14.18;;;8.60;99.90;;;;;;4936182;29;20032;-92
2023/04/06 06:12:58;;;;;;;22.02;13.20;;;8.60;99.90;;;;;;4936952;29;20031;-91
2023/04/06 06:15:26;;;;;;;23.33;14.18;;;8.60;99.90;;;;;;4936938;29;20055;-93
2023/04/06 06:17:53;;;;;;;26.15;14.48;;;8.60;99.90;;;;;;4936240;29;20114;-91
2023/04/06 06:20:20;;;;;;;25.98;14.43;;;8.60;99.90;;;;;;4920622;29;20047;-92
2023/04/06 06:22:48;;;;;;;22.55;14.13;;;8.70;99.90;;;;;;4935709;29;20031;-94
2023/04/06 06:25:18;;;;;;;19.65;13.18;;;8.70;99.90;;;;;;4936848;29;20523;-92
2023/04/06 06:27:48;;;;;;;21.52;14.20;;;8.70;99.90;;;;;;4935117;29;20023;-92
2023/04/06 06:30:20;;;;;;;22.98;13.93;;;8.80;99.90;;;;;;4920652;29;20418;-93
2023/04/06 06:32:46;;;;;;;21.58;13.60;;;8.80;99.90;;;;;;4936376;29;20035;-93
2023/04/06 06:35:13;;;;;;;21.05;14.15;;;8.70;99.90;;;;;;4920236;29;20051;-92
2023/04/06 06:37:40;;;;;;;27.85;15.10;;;8.70;99.90;;;;;;4936302;29;20171;-92
2023/04/06 06:40:12;;;;;;;27.48;15.38;;;8.80;99.90;;;;;;4939027;29;20366;-92
2023/04/06 06:42:41;;;;;;;25.48;14.20;;;8.90;99.90;;;;;;4923955;29;20441;-94
2023/04/06 06:45:26;;;;;;;;;;;9.00;99.90;;;;;;4942465;29;20035;-91
2023/04/06 06:47:52;;;;;;;22.45;13.93;;;9.10;99.90;;;;;;4938968;29;19914;-91
2023/04/06 06:50:19;;;;;;;19.83;13.63;;;9.20;99.90;;;;;;4923147;29;20028;-92
2023/04/06 06:52:45;;;;;;;21.85;14.13;;;9.30;99.90;;;;;;4924060;29;20454;-92
2023/04/06 06:55:11;;;;;;;19.98;13.63;;;9.30;99.90;;;;;;4923867;29;20051;-93
2023/04/06 06:57:38;;;;;;;24.02;13.20;;;9.40;99.90;;;;;;4923339;29;20034;-93
2023/04/06 07:00:10;;;;;;;24.00;15.10;;;9.40;99.90;;;;;;4925110;29;20040;-93
2023/04/06 07:02:39;;;;;;;21.60;13.10;;;9.50;99.90;;;;;;4923568;29;20079;-91
2023/04/06 07:05:09;;;;;;;20.15;12.90;;;9.80;99.90;;;;;;4923085;29;20035;-90
2023/04/06 07:07:35;;;;;;;22.15;13.30;;;9.90;99.90;;;;;;4938837;29;20489;-92
2023/04/06 07:10:02;;;;;;;24.83;13.65;;;10.20;99.90;;;;;;4939550;29;20031;-91
2023/04/06 07:12:28;;;;;;;21.60;14.00;;;10.20;99.90;;;;;;4936190;28;20031;-91
2023/04/06 07:14:55;;;;;;;18.08;12.40;;;10.40;99.90;;;;;;4941681;28;20043;-91
2023/04/06 07:17:21;;;;;;;19.52;12.88;;;10.40;99.90;;;;;;4941733;28;20085;-93
2023/04/06 07:19:51;;;;;;;18.15;12.77;;;10.00;99.90;;;;;;4954421;29;20098;-91
2023/04/06 07:22:18;;;;;;;21.55;13.93;;;9.60;99.90;;;;;;4957425;28;20031;-92
2023/04/06 07:24:44;;;;;;;24.58;15.20;;;9.40;99.90;;;;;;4942110;28;20037;-91
2023/04/06 07:27:11;;;;;;;21.08;14.20;;;9.30;99.90;;;;;;4941960;28;20030;-92
2023/04/06 07:29:40;;;;;;;21.02;14.32;;;9.30;99.90;;;;;;4942225;28;20121;-89
2023/04/06 07:32:08;;;;;;;18.38;14.10;;;9.40;99.90;;;;;;4943390;28;20031;-93
2023/04/06 07:34:35;;;;;;;17.55;12.48;;;9.40;99.90;;;;;;4941783;28;20038;-91
2023/04/06 07:37:02;;;;;;;17.52;12.70;;;9.50;99.90;;;;;;4942116;28;20109;-90
2023/04/06 07:39:30;;;;;;;18.00;12.45;;;9.50;99.90;;;;;;4944444;28;20085;-90
2023/04/06 07:41:57;;;;;;;15.32;12.18;;;9.50;99.90;;;;;;4945676;28;20027;-92
2023/04/06 07:44:24;;;;;;;16.83;12.55;;;9.80;99.90;;;;;;4945349;28;20031;-91
2023/04/06 07:46:51;;;;;;;17.05;12.45;;;10.00;99.90;;;;;;4945247;28;20373;-92
2023/04/06 07:49:20;;;;;;;18.77;12.90;;;10.20;99.90;;;;;;4945298;28;20023;-92
2023/04/06 07:51:47;;;;;;;14.23;11.93;;;10.30;99.90;;;;;;4945166;28;20078;-90
2023/04/06 07:54:13;;;;;;;15.40;13.27;;;10.20;99.90;;;;;;4944939;28;20041;-93
2023/04/06 07:56:40;;;;;;;17.95;12.63;;;10.40;99.90;;;;;;4944963;28;20031;-92
2023/04/06 07:59:06;;;;;;;16.42;12.20;;;10.80;99.90;;;;;;4944928;28;20034;-91
2023/04/06 08:01:33;;;;;;;14.23;12.52;;;11.40;99.90;;;;;;4945396;28;20031;-91
2023/04/06 08:04:03;;;;;;;13.50;11.55;;;11.70;99.90;;;;;;4945023;28;20027;-93
2023/04/06 08:06:30;;;;;;;14.02;12.68;;;12.00;99.90;;;;;;4944875;28;20034;-92
2023/04/06 08:08:56;;;;;;;14.05;12.70;;;12.20;99.90;;;;;;4945164;28;20113;-92
2023/04/06 08:11:22;;;;;;;15.10;13.73;;;12.30;99.90;;;;;;4944706;28;20182;-91
2023/04/06 08:13:49;;;;;;;14.55;13.27;;;12.40;99.90;;;;;;4944608;28;20035;-91
2023/04/06 08:16:15;;;;;;;15.70;14.30;;;12.10;99.90;;;;;;4944743;28;20122;-92
2023/04/06 08:18:45;;;;;;;18.15;14.43;;;12.20;99.90;;;;;;4944518;28;20158;-91
2023/04/06 08:21:11;;;;;;;15.15;13.75;;;12.30;99.90;;;;;;4944810;28;20026;-93
2023/04/06 08:23:38;;;;;;;16.40;14.82;;;12.60;99.90;;;;;;4944550;28;20031;-91
2023/04/06 08:26:08;;;;;;;18.13;15.85;;;12.70;99.90;;;;;;4944604;28;20038;-93
2023/04/06 08:28:37;;;;;;;18.63;16.73;;;12.50;99.90;;;;;;4944882;28;20031;-95
2023/04/06 08:31:06;;;;;;;19.30;17.30;;;12.60;99.90;;;;;;4944592;28;20055;-92
2023/04/06 08:33:36;;;;;;;18.25;16.42;;;12.70;99.90;;;;;;4944631;28;20416;-92
2023/04/06 08:36:14;;;;;;;18.50;16.70;;;12.80;99.90;;;;;;4944471;28;20058;-95
2023/04/06 08:38:42;;;;;;;19.52;17.45;;;12.70;99.90;;;;;;4944641;28;20038;-92
2023/04/06 08:41:13;;;;;;;19.08;17.13;;;12.60;99.90;;;;;;4944789;28;20085;-92
2023/04/06 08:43:53;;;;;;;19.55;17.55;;;12.60;99.90;;;;;;4944661;28;20037;-93
2023/04/06 08:46:21;;;;;;;20.15;18.50;;;13.00;99.90;;;;;;4944198;28;20035;-93
2023/04/06 08:48:51;;;;;;;20.80;19.25;;;13.70;99.90;;;;;;4944021;28;20023;-93
2023/04/06 08:51:19;;;;;;;21.73;19.90;;;14.20;99.90;;;;;;4943797;28;20035;-92
2023/04/06 08:53:46;;;;;;;20.73;19.02;;;14.10;99.90;;;;;;4944334;28;20022;-93
2023/04/06 08:56:19;;;;;;;21.95;19.88;;;13.60;99.90;;;;;;4944053;28;20034;-92
2023/04/06 08:58:45;;;;;;;20.95;19.25;;;13.20;99.90;;;;;;4943025;28;20138;-90
2023/04/06 09:01:14;;;;;;;20.85;18.83;;;12.70;99.90;;;;;;4944857;28;20118;-92
2023/04/06 09:03:41;;;;;;;19.75;17.70;;;12.30;99.90;;;;;;4943871;28;20484;-91
2023/04/06 09:06:09;;;;;;;19.42;17.73;;;12.10;99.90;;;;;;4943765;28;20022;-92
2023/04/06 09:08:40;;;;;;;20.48;18.60;;;11.90;99.90;;;;;;4943772;28;20039;-92
2023/04/06 09:11:07;;;;;;;20.00;18.08;;;12.00;99.90;;;;;;4943873;28;20050;-91
2023/04/06 09:13:49;;;;;;;20.65;18.85;;;12.20;99.90;;;;;;4943967;28;20027;-93
2023/04/06 09:16:16;;;;;;;20.65;18.70;;;12.30;99.90;;;;;;4943649;28;20480;-90
2023/04/06 09:18:42;;;;;;;20.35;18.80;;;12.30;99.90;;;;;;4943701;28;20039;-91
2023/04/06 09:21:10;;;;;;;20.75;18.98;;;12.40;99.90;;;;;;4943703;28;20027;-93
2023/04/06 09:23:38;;;;;;;20.88;19.15;;;12.80;99.90;;;;;;4943451;28;20109;-91
2023/04/06 09:26:16;;;;;;;21.55;19.65;;;12.90;99.90;;;;;;4943177;28;20035;-91
2023/04/06 09:28:45;;;;;;;22.80;20.60;;;13.20;99.90;;;;;;4943391;28;20034;-90
2023/04/06 09:31:13;;;;;;;22.38;20.63;;;13.40;99.90;;;;;;4943408;28;20022;-90
2023/04/06 09:33:45;;;;;;;21.85;20.15;;;13.40;99.90;;;;;;4943105;28;20031;-91
2023/04/06 09:36:15;;;;;;;23.20;20.88;;;13.40;99.90;;;;;;4943361;28;20030;-92
2023/04/06 09:38:54;;;;;;;22.65;20.67;;;13.40;99.90;;;;;;4941251;29;20134;-91
2023/04/06 09:41:28;;;;;;;22.05;20.45;;;13.60;99.90;;;;;;4940039;29;20488;-91
2023/04/06 09:44:09;;;;;;;22.48;20.58;;;13.60;99.90;;;;;;4939810;29;20118;-92
2023/04/06 09:46:40;;;;;;;21.98;20.15;;;13.60;99.90;;;;;;4925085;29;20030;-92
2023/04/06 09:49:08;;;;;;;21.88;19.98;;;13.20;99.90;;;;;;4939513;29;20027;-91
2023/04/06 09:51:47;;;;;;;21.23;19.52;;;12.90;99.90;;;;;;4923829;29;20388;-92
2023/04/06 09:54:20;;;;;;;21.38;19.48;;;12.90;99.90;;;;;;4939617;29;20499;-92
2023/04/06 09:57:08;;;;;;;20.92;19.23;;;12.80;99.90;;;;;;4924117;29;20031;-90
2023/04/06 09:59:53;;;;;;;20.63;18.65;;;13.00;99.90;;;;;;4923631;29;20047;-91
2023/04/06 10:02:46;;;;;;;20.75;19.00;;;13.10;99.90;;;;;;4922831;29;20035;-93
2023/04/06 10:05:21;;;;;;;21.88;19.75;;;13.40;99.90;;;;;;4916975;29;20092;-91
2023/04/06 10:07:51;;;;;;;20.23;18.52;;;13.60;99.90;;;;;;4901180;29;20068;-91
2023/04/06 10:10:17;;;;;;;20.77;19.17;;;13.80;99.90;;;;;;4901040;29;20040;-92
2023/04/06 10:12:45;;;;;;;21.52;19.65;;;13.90;99.90;;;;;;4901004;29;20024;-91
2023/04/06 10:15:12;;;;;;;21.65;19.95;;;14.00;99.90;;;;;;4900890;29;20052;-91
2023/04/06 10:20:52;;;;;;;21.77;19.88;;;13.60;99.90;;;;;;4861399;29;20070;-91
2023/04/06 10:23:37;;;;;;;22.08;19.98;;;13.40;99.90;;;;;;4860447;29;20032;-91
2023/04/06 10:26:04;;;;;;;23.52;21.60;;;13.30;99.90;;;;;;4861172;29;20060;-91
2023/04/06 10:28:36;;;;;;;22.48;20.48;;;13.30;99.90;;;;;;4860342;29;20480;-91
2023/04/06 10:31:05;;;;;;;22.50;20.52;;;13.10;99.90;;;;;;4860050;29;20057;-92
2023/04/06 10:33:32;;;;;;;24.15;22.02;;;13.10;99.90;;;;;;4860789;29;20033;-91
2023/04/06 10:36:10;;;;;;;24.17;21.23;;;13.00;99.90;;;;;;4876216;29;20040;-93
2023/04/06 10:38:40;;;;;;;23.75;21.77;;;12.80;99.90;;;;;;4882170;29;20049;-92
2023/04/06 10:41:10;;;;;;;24.00;22.00;;;12.90;99.90;;;;;;4881732;29;20028;-92
2023/04/06 10:43:39;;;;;;;22.70;20.85;;;13.00;99.90;;;;;;4881607;29;20036;-91
2023/04/06 10:46:08;;;;;;;23.38;21.38;;;13.30;99.90;;;;;;4881921;29;20032;-92
2023/04/06 10:48:37;;;;;;;24.10;21.77;;;13.10;99.90;;;;;;4881986;29;20399;-93
2023/04/06 10:51:09;;;;;;;22.95;21.23;;;12.90;99.90;;;;;;4882048;29;20064;-93
2023/04/06 10:53:35;;;;;;;23.40;21.42;;;13.00;99.90;;;;;;4881555;29;20028;-90
2023/04/06 10:56:03;;;;;;;24.58;22.35;;;12.90;99.90;;;;;;4881855;29;20040;-93
2023/04/06 10:58:30;;;;;;;24.02;21.63;;;12.70;99.90;;;;;;4919925;29;20145;-93
2023/04/06 11:00:57;;;;;;;24.65;22.30;;;12.70;99.90;;;;;;4923460;29;20028;-92
2023/04/06 11:03:24;;;;;;;25.25;21.92;;;12.50;99.90;;;;;;4923290;29;20485;-89
2023/04/06 11:05:51;;;;;;;23.98;21.85;;;12.40;99.90;;;;;;4923194;29;20055;-90
2023/04/06 11:08:34;;;;;;;24.17;22.00;;;12.10;99.90;;;;;;4923218;29;20126;-93
2023/04/06 11:11:10;;;;;;;24.10;21.88;;;12.20;99.90;;;;;;4939294;29;20392;-93
2023/04/06 11:13:57;;;;;;;24.50;22.40;;;12.00;99.90;;;;;;4940373;29;20035;-92
2023/04/06 11:16:26;;;;;;;24.42;22.17;;;12.00;99.90;;;;;;4942503;29;20065;-92
2023/04/06 11:18:58;;;;;;;24.48;22.17;;;11.90;99.90;;;;;;4942514;29;20039;-92
2023/04/06 11:21:41;;;;;;;23.13;21.02;;;11.80;99.90;;;;;;4927078;29;20037;-92
2023/04/06 11:24:13;;;;;;;24.55;22.25;;;11.70;99.90;;;;;;4927217;29;20042;-90
2023/04/06 11:26:51;;;;;;;23.60;21.50;;;11.70;99.90;;;;;;4927432;29;20489;-92
2023/04/06 11:29:23;;;;;;;23.73;21.52;;;11.80;99.90;;;;;;4943113;29;20039;-93
2023/04/06 11:31:54;;;;;;;24.42;22.23;;;12.10;99.90;;;;;;4926653;29;20023;-92
2023/04/06 11:34:22;;;;;;;25.27;22.83;;;12.40;99.90;;;;;;4942405;29;20031;-90
2023/04/06 11:36:59;;;;;;;25.95;23.55;;;12.20;99.90;;;;;;4926491;29;20106;-91
2023/04/06 11:39:28;;;;;;;24.25;22.02;;;12.10;99.90;;;;;;4926774;29;20043;-88
2023/04/06 11:41:59;;;;;;;24.65;22.50;;;12.30;99.90;;;;;;4926452;29;20110;-91
2023/04/06 11:44:35;;;;;;;24.35;22.15;;;12.20;99.90;;;;;;4943856;29;20035;-92
2023/04/06 11:47:05;;;;;;;24.48;22.25;;;12.10;99.90;;;;;;4926434;29;20097;-93
2023/04/06 11:49:33;;;;;;;24.20;22.05;;;12.50;99.90;;;;;;4926244;29;20027;-91
2023/04/06 11:52:01;;;;;;;24.88;22.83;;;13.00;99.90;;;;;;4926512;29;20034;-92
2023/04/06 11:54:32;;;;;;;23.83;21.92;;;12.90;99.90;;;;;;4926136;29;20031;-92
2023/04/06 11:57:00;;;;;;;25.52;22.88;;;12.80;99.90;;;;;;4925958;29;20034;-93
2023/04/06 11:59:27;;;;;;;25.35;22.95;;;12.50;99.90;;;;;;4925969;29;20134;-90
2023/04/06 12:01:54;;;;;;;25.17;23.08;;;12.30;99.90;;;;;;4926176;29;20102;-92
2023/04/06 12:04:21;;;;;;;24.98;22.73;;;12.10;99.90;;;;;;4926214;29;20122;-94
2023/04/06 12:06:48;;;;;;;25.42;22.95;;;11.80;99.90;;;;;;4926234;29;20023;-93
2023/04/06 12:09:15;;;;;;;23.25;21.27;;;11.70;99.90;;;;;;4926723;29;20035;-92
2023/04/06 12:11:42;;;;;;;23.92;22.05;;;11.40;99.90;;;;;;4926599;29;20054;-92
2023/04/06 12:14:09;;;;;;;23.77;21.90;;;11.30;99.90;;;;;;4925706;29;20047;-91
2023/04/06 12:16:36;;;;;;;24.17;22.38;;;11.30;99.90;;;;;;4926628;29;20031;-91
2023/04/06 12:19:04;;;;;;;24.60;22.58;;;11.50;99.90;;;;;;4925724;29;20190;-90
2023/04/06 12:21:31;;;;;;;24.48;22.27;;;11.80;99.90;;;;;;4925881;29;20054;-94
2023/04/06 12:23:58;;;;;;;24.13;22.08;;;11.90;99.90;;;;;;4925978;29;20042;-91
2023/04/06 12:26:26;;;;;;;24.55;22.55;;;12.20;99.90;;;;;;4924836;29;20023;-93
2023/04/06 12:28:53;;;;;;;24.23;22.38;;;12.50;99.90;;;;;;4921800;29;20043;-91
2023/04/06 12:31:21;;;;;;;25.42;23.33;;;12.70;99.90;;;;;;4921913;29;20039;-93
2023/04/06 12:33:51;;;;;;;26.50;24.30;;;12.80;99.90;;;;;;4921898;29;20051;-92
2023/04/06 12:36:19;;;;;;;24.13;22.27;;;12.90;99.90;;;;;;4921460;29;20082;-94
2023/04/06 12:38:50;;;;;;;24.90;22.90;;;13.00;99.90;;;;;;4922106;29;20056;-92
2023/04/06 12:41:17;;;;;;;25.45;23.23;;;13.40;99.90;;;;;;4921489;29;20028;-92
2023/04/06 12:43:45;;;;;;;24.60;22.77;;;13.70;99.90;;;;;;4921266;29;20497;-92
2023/04/06 12:46:12;;;;;;;23.85;22.02;;;13.80;99.90;;;;;;4921138;29;20119;-92
2023/04/06 12:48:39;;;;;;;24.88;22.75;;;13.40;99.90;;;;;;4921224;29;20512;-91
2023/04/06 12:51:06;;;;;;;23.88;22.08;;;13.00;99.90;;;;;;4921204;29;20114;-91
2023/04/06 12:53:34;;;;;;;24.42;22.30;;;12.80;99.90;;;;;;4922179;29;20031;-90
2023/04/06 12:56:02;;;;;;;24.30;22.50;;;12.70;99.90;;;;;;4922200;29;20126;-91
2023/04/06 12:58:29;;;;;;;24.40;22.40;;;12.40;99.90;;;;;;4937075;29;20112;-92
2023/04/06 13:01:02;;;;;;;23.67;21.75;;;12.50;99.90;;;;;;4924996;29;20031;-89
2023/04/06 13:03:29;;;;;;;23.52;21.75;;;12.80;99.90;;;;;;4925103;29;20042;-91
2023/04/06 13:05:56;;;;;;;24.10;22.05;;;12.90;99.90;;;;;;4924962;28;20110;-91
2023/04/06 13:08:22;;;;;;;23.67;21.63;;;13.00;99.90;;;;;;4924750;29;20125;-90